Time;durP1;ratioP1;P1;durP2;ratioP2;P2;SDS_P1;SDS_P2;PMS_P1;PMS_P2;Temp;Humidity;BMP_temperature;BMP_pressure;BME280_temperature;BME280_humidity;BME280_pressure;Samples;Min_cycle;Max_cycle;Signal;HPM_P1;HPM_P2
2022/07/21 00:02:16;;;;;;;11.13;9.63;;;;;;;;;;4954602;28;20177;-69
2022/07/21 00:04:41;;;;;;;12.93;11.60;;;;;;;;;;4953263;28;20225;-69
2022/07/21 00:07:06;;;;;;;11.10;9.90;;;;;;;;;;4976461;28;20186;-70
2022/07/21 00:09:35;;;;;;;13.03;10.10;;;;;;;;;;4954010;28;20201;-69
2022/07/21 00:12:00;;;;;;;11.97;10.70;;;;;;;;;;4957723;28;20216;-69
2022/07/21 00:14:25;;;;;;;12.37;10.80;;;;;;;;;;4957534;28;21059;-70
2022/07/21 00:16:50;;;;;;;12.10;10.87;;;;;;;;;;4979486;28;20349;-69
2022/07/21 00:19:16;;;;;;;11.63;10.43;;;;;;;;;;4971581;28;20191;-70
2022/07/21 00:21:41;;;;;;;11.40;10.30;;;;;;;;;;4975874;28;20289;-70
2022/07/21 00:24:06;;;;;;;12.07;10.87;;;;;;;;;;4973823;28;20188;-70
2022/07/21 00:26:31;;;;;;;10.77;9.77;;;;;;;;;;4957156;28;20190;-69
2022/07/21 00:28:57;;;;;;;10.63;9.50;;;;;;;;;;4963676;28;20271;-69
2022/07/21 00:31:22;;;;;;;11.37;9.00;;;;;;;;;;4971450;28;20167;-69
2022/07/21 00:33:50;;;;;;;10.77;9.73;;;;;;;;;;4954534;28;20213;-70
2022/07/21 00:36:16;;;;;;;11.10;10.07;;;;;;;;;;4953045;28;20180;-69
2022/07/21 00:38:41;;;;;;;10.47;9.40;;;;;;;;;;4964688;28;20189;-69
2022/07/21 00:41:06;;;;;;;9.63;8.50;;;;;;;;;;4971709;28;20191;-70
2022/07/21 00:43:31;;;;;;;10.80;9.77;;;;;;;;;;4959842;28;20185;-70
2022/07/21 00:45:57;;;;;;;10.33;9.33;;;;;;;;;;4975059;28;20176;-70
2022/07/21 00:48:22;;;;;;;11.77;9.97;;;;;;;;;;4965682;28;20307;-69
2022/07/21 00:50:47;;;;;;;10.07;9.17;;;;;;;;;;4972076;28;20183;-69
2022/07/21 00:53:12;;;;;;;10.70;9.60;;;;;;;;;;4958829;28;20212;-69
2022/07/21 00:55:41;;;;;;;9.83;8.80;;;;;;;;;;4951373;28;20201;-70
2022/07/21 00:58:06;;;;;;;9.67;7.87;;;;;;;;;;4956322;28;20390;-70
2022/07/21 01:00:31;;;;;;;9.40;8.60;;;;;;;;;;4957513;28;20323;-69
2022/07/21 01:02:57;;;;;;;9.83;8.30;;;;;;;;;;4954648;28;20194;-69
2022/07/21 01:05:23;;;;;;;8.53;7.73;;;;;;;;;;4957332;28;20192;-70
2022/07/21 01:07:52;;;;;;;8.30;7.60;;;;;;;;;;4977999;28;20199;-69
2022/07/21 01:10:18;;;;;;;8.63;7.90;;;;;;;;;;4981125;28;20235;-70
2022/07/21 01:12:44;;;;;;;9.13;7.97;;;;;;;;;;4950850;28;20293;-70
2022/07/21 01:15:11;;;;;;;8.20;7.43;;;;;;;;;;4955972;28;20303;-70
2022/07/21 01:17:36;;;;;;;8.83;7.93;;;;;;;;;;4963731;28;20207;-70
2022/07/21 01:20:06;;;;;;;8.30;7.57;;;;;;;;;;4955017;28;20193;-70
2022/07/21 01:22:32;;;;;;;7.77;7.17;;;;;;;;;;4951835;28;20314;-70
2022/07/21 01:24:57;;;;;;;7.77;7.17;;;;;;;;;;4967719;28;20267;-70
2022/07/21 01:27:24;;;;;;;7.63;7.03;;;;;;;;;;4948992;28;20239;-70
2022/07/21 01:29:49;;;;;;;7.17;6.47;;;;;;;;;;4966469;28;20237;-69
2022/07/21 01:32:14;;;;;;;7.53;6.80;;;;;;;;;;4979396;28;20209;-70
2022/07/21 01:34:39;;;;;;;7.57;6.87;;;;;;;;;;4959108;28;20204;-69
2022/07/21 01:37:05;;;;;;;6.63;6.13;;;;;;;;;;4973586;28;20168;-70
2022/07/21 01:42:14;;;;;;;7.90;7.10;;;;;;;;;;4970921;28;20204;-69
2022/07/21 01:44:39;;;;;;;7.87;7.17;;;;;;;;;;4978631;28;20177;-69
2022/07/21 01:47:04;;;;;;;7.70;7.00;;;;;;;;;;4954200;28;20244;-70
2022/07/21 01:49:29;;;;;;;8.30;7.50;;;;;;;;;;4959755;28;20185;-70
2022/07/21 01:51:55;;;;;;;6.70;6.10;;;;;;;;;;4965120;28;20179;-70
2022/07/21 01:54:20;;;;;;;8.33;7.63;;;;;;;;;;4961048;28;20174;-70
2022/07/21 01:56:45;;;;;;;8.37;7.53;;;;;;;;;;4953341;28;20231;-70
2022/07/21 01:59:10;;;;;;;8.90;8.07;;;;;;;;;;4976072;28;20350;-70
2022/07/21 02:01:35;;;;;;;9.03;8.23;;;;;;;;;;4967054;28;20181;-70
2022/07/21 02:04:01;;;;;;;8.37;7.57;;;;;;;;;;4972489;28;20199;-69
2022/07/21 02:06:27;;;;;;;8.70;7.87;;;;;;;;;;4957704;28;20193;-69
2022/07/21 02:08:52;;;;;;;8.40;7.60;;;;;;;;;;4955462;28;20201;-69
2022/07/21 02:11:17;;;;;;;8.67;7.77;;;;;;;;;;4972462;28;20187;-69
2022/07/21 02:13:43;;;;;;;9.10;7.87;;;;;;;;;;4952540;28;20209;-70
2022/07/21 02:16:09;;;;;;;8.27;7.47;;;;;;;;;;4953288;28;20216;-72
2022/07/21 02:18:34;;;;;;;8.73;8.03;;;;;;;;;;4966811;28;20239;-73
2022/07/21 02:20:59;;;;;;;10.33;8.53;;;;;;;;;;4954607;28;20219;-72
2022/07/21 02:23:25;;;;;;;9.40;8.40;;;;;;;;;;4960205;28;20259;-72
2022/07/21 02:25:53;;;;;;;8.10;7.30;;;;;;;;;;4973782;28;20180;-72
2022/07/21 02:28:18;;;;;;;8.27;7.47;;;;;;;;;;4969834;28;20196;-72
2022/07/21 02:30:43;;;;;;;8.23;7.53;;;;;;;;;;4957327;28;20276;-72
2022/07/21 02:33:09;;;;;;;7.67;6.87;;;;;;;;;;4970185;28;20227;-72
2022/07/21 02:35:34;;;;;;;8.53;7.70;;;;;;;;;;4964165;28;20186;-71
2022/07/21 02:37:59;;;;;;;8.17;7.47;;;;;;;;;;4958380;28;20269;-72
2022/07/21 02:40:25;;;;;;;8.00;7.30;;;;;;;;;;4967146;28;20190;-72
2022/07/21 02:42:50;;;;;;;9.30;7.80;;;;;;;;;;4972232;28;20180;-72
2022/07/21 02:45:15;;;;;;;9.37;8.57;;;;;;;;;;4968060;28;20184;-72
2022/07/21 02:47:51;;;;;;;10.23;8.10;;;;;;;;;;4956292;28;20184;-72
2022/07/21 02:50:17;;;;;;;8.33;7.57;;;;;;;;;;4972920;28;20188;-72
2022/07/21 02:52:42;;;;;;;8.57;7.77;;;;;;;;;;4950246;28;20209;-71
2022/07/21 02:55:08;;;;;;;9.40;8.50;;;;;;;;;;4968378;28;20192;-71
2022/07/21 02:57:33;;;;;;;10.63;8.63;;;;;;;;;;4950746;28;20180;-71
2022/07/21 02:59:58;;;;;;;9.33;8.43;;;;;;;;;;4972220;28;20175;-72
2022/07/21 03:02:23;;;;;;;9.83;8.83;;;;;;;;;;4954928;28;20185;-72
2022/07/21 03:04:49;;;;;;;9.93;9.03;;;;;;;;;;4973447;28;20188;-71
2022/07/21 03:07:14;;;;;;;9.40;8.50;;;;;;;;;;4976203;28;20385;-72
2022/07/21 03:09:39;;;;;;;10.53;9.53;;;;;;;;;;4953681;28;20181;-72
2022/07/21 03:12:04;;;;;;;10.23;9.23;;;;;;;;;;4973895;28;20208;-72
2022/07/21 03:14:29;;;;;;;10.17;9.17;;;;;;;;;;4954784;28;20172;-72
2022/07/21 03:16:57;;;;;;;10.37;9.47;;;;;;;;;;4957110;28;20267;-71
2022/07/21 03:19:22;;;;;;;11.03;9.93;;;;;;;;;;4957715;28;20188;-71
2022/07/21 03:21:47;;;;;;;11.23;10.23;;;;;;;;;;4962181;28;20227;-71
2022/07/21 03:24:14;;;;;;;12.20;11.00;;;;;;;;;;4983865;28;20175;-72
2022/07/21 03:26:39;;;;;;;10.90;9.90;;;;;;;;;;4971872;28;20190;-72
2022/07/21 03:29:04;;;;;;;11.00;10.00;;;;;;;;;;5001329;28;20176;-71
2022/07/21 03:31:29;;;;;;;11.43;10.43;;;;;;;;;;4975742;28;20201;-71
2022/07/21 03:33:55;;;;;;;10.70;9.43;;;;;;;;;;4982818;28;20248;-71
2022/07/21 03:36:22;;;;;;;11.23;9.97;;;;;;;;;;4977086;28;20174;-71
2022/07/21 03:38:47;;;;;;;11.53;10.50;;;;;;;;;;4982253;28;20208;-72
2022/07/21 03:41:12;;;;;;;11.73;10.63;;;;;;;;;;4970383;28;20181;-71
2022/07/21 03:43:37;;;;;;;12.87;10.10;;;;;;;;;;4985357;28;20199;-71
2022/07/21 03:46:03;;;;;;;11.60;10.40;;;;;;;;;;4986559;28;20185;-72
2022/07/21 03:48:28;;;;;;;16.30;11.53;;;;;;;;;;4973293;28;20189;-72
2022/07/21 03:50:53;;;;;;;11.50;10.40;;;;;;;;;;4987532;28;20178;-71
2022/07/21 03:53:18;;;;;;;12.07;10.90;;;;;;;;;;4970003;28;20198;-72
2022/07/21 03:55:46;;;;;;;13.27;10.57;;;;;;;;;;4969810;28;20220;-71
2022/07/21 03:58:11;;;;;;;10.97;9.97;;;;;;;;;;4974971;28;20173;-71
2022/07/21 04:00:44;;;;;;;12.53;11.03;;;;;;;;;;4986840;28;20186;-72
2022/07/21 04:03:10;;;;;;;11.97;10.87;;;;;;;;;;4991093;28;20177;-72
2022/07/21 04:05:36;;;;;;;12.07;10.90;;;;;;;;;;4969250;28;20185;-72
2022/07/21 04:08:01;;;;;;;11.60;10.43;;;;;;;;;;4977598;28;20182;-72
2022/07/21 04:10:27;;;;;;;12.43;11.23;;;;;;;;;;4978308;28;20186;-72
2022/07/21 04:12:53;;;;;;;11.57;10.17;;;;;;;;;;4969904;28;20232;-71
2022/07/21 04:15:19;;;;;;;11.97;10.23;;;;;;;;;;4968168;28;20185;-72
2022/07/21 04:17:44;;;;;;;10.60;9.63;;;;;;;;;;4974038;28;20181;-72
2022/07/21 04:20:11;;;;;;;10.90;9.80;;;;;;;;;;4971597;28;20187;-71
2022/07/21 04:22:36;;;;;;;11.20;9.50;;;;;;;;;;4956946;28;20233;-71
2022/07/21 04:25:02;;;;;;;10.67;9.57;;;;;;;;;;4974470;28;20182;-71
2022/07/21 04:27:27;;;;;;;9.93;9.03;;;;;;;;;;4952602;28;20186;-72
2022/07/21 04:29:53;;;;;;;12.53;9.43;;;;;;;;;;4959990;28;20329;-71
2022/07/21 04:32:19;;;;;;;12.03;9.73;;;;;;;;;;4969137;28;20220;-72
2022/07/21 04:34:44;;;;;;;10.77;9.77;;;;;;;;;;4953051;28;20201;-71
2022/07/21 04:37:09;;;;;;;10.40;9.37;;;;;;;;;;4954107;28;20211;-72
2022/07/21 04:39:34;;;;;;;9.63;8.73;;;;;;;;;;4973864;28;20177;-72
2022/07/21 04:42:00;;;;;;;11.80;9.53;;;;;;;;;;4972475;28;20185;-71
2022/07/21 04:44:25;;;;;;;10.27;8.57;;;;;;;;;;4945694;28;20214;-71
2022/07/21 04:46:50;;;;;;;11.03;8.73;;;;;;;;;;4954833;28;20177;-72
2022/07/21 04:49:16;;;;;;;9.47;8.67;;;;;;;;;;4965217;28;20228;-72
2022/07/21 04:51:41;;;;;;;10.77;9.67;;;;;;;;;;4954826;28;20277;-72
2022/07/21 04:54:06;;;;;;;10.43;9.13;;;;;;;;;;4955104;28;20204;-72
2022/07/21 04:56:34;;;;;;;9.87;8.97;;;;;;;;;;4974008;28;20212;-72
2022/07/21 04:58:59;;;;;;;9.70;8.80;;;;;;;;;;4959194;28;20231;-72
2022/07/21 05:01:24;;;;;;;10.07;9.07;;;;;;;;;;4973439;28;20181;-72
2022/07/21 05:03:49;;;;;;;9.50;8.60;;;;;;;;;;4971040;28;20180;-72
2022/07/21 05:06:15;;;;;;;9.53;8.73;;;;;;;;;;4954448;28;20327;-71
2022/07/21 05:08:40;;;;;;;10.43;9.23;;;;;;;;;;4959566;28;20190;-72
2022/07/21 05:11:06;;;;;;;9.40;8.60;;;;;;;;;;4950473;28;20213;-72
2022/07/21 05:13:31;;;;;;;11.23;10.23;;;;;;;;;;4975950;28;20197;-72
2022/07/21 05:15:56;;;;;;;10.27;9.17;;;;;;;;;;4978602;28;20193;-72
2022/07/21 05:18:21;;;;;;;9.10;8.20;;;;;;;;;;4977840;28;20185;-72
2022/07/21 05:20:49;;;;;;;10.10;9.20;;;;;;;;;;4953913;28;20178;-73
2022/07/21 05:23:16;;;;;;;10.27;9.37;;;;;;;;;;4971010;28;20202;-72
2022/07/21 05:25:41;;;;;;;10.20;9.20;;;;;;;;;;4979894;28;20201;-72
2022/07/21 05:28:07;;;;;;;10.03;9.13;;;;;;;;;;4980206;28;20191;-72
2022/07/21 05:30:32;;;;;;;9.33;8.50;;;;;;;;;;4970266;28;20175;-72
2022/07/21 05:32:57;;;;;;;10.47;8.77;;;;;;;;;;4954724;28;20265;-73
2022/07/21 05:35:22;;;;;;;9.33;8.43;;;;;;;;;;4973456;28;20210;-72
2022/07/21 05:37:48;;;;;;;10.43;9.37;;;;;;;;;;4963333;28;20514;-72
2022/07/21 05:40:13;;;;;;;9.60;8.70;;;;;;;;;;4974226;28;20170;-72
2022/07/21 05:42:39;;;;;;;8.90;8.10;;;;;;;;;;4954045;28;20183;-72
2022/07/21 05:45:05;;;;;;;11.10;8.47;;;;;;;;;;4958612;28;20228;-73
2022/07/21 05:47:31;;;;;;;8.37;7.67;;;;;;;;;;4976746;28;20181;-72
2022/07/21 05:49:57;;;;;;;9.40;8.50;;;;;;;;;;4958499;28;20197;-73
2022/07/21 05:52:22;;;;;;;9.87;8.63;;;;;;;;;;4958215;28;20205;-72
2022/07/21 05:54:47;;;;;;;9.03;8.17;;;;;;;;;;4961213;28;20181;-72
2022/07/21 05:57:12;;;;;;;11.80;8.57;;;;;;;;;;4976496;28;20206;-71
2022/07/21 05:59:37;;;;;;;8.80;8.10;;;;;;;;;;4953004;28;20185;-72
2022/07/21 06:02:03;;;;;;;8.67;7.87;;;;;;;;;;4972657;28;20198;-71
2022/07/21 06:04:28;;;;;;;8.13;7.37;;;;;;;;;;4970030;28;20358;-72
2022/07/21 06:06:53;;;;;;;8.87;7.57;;;;;;;;;;4972428;28;20170;-72
2022/07/21 06:09:20;;;;;;;8.23;7.43;;;;;;;;;;4954472;28;20438;-72
2022/07/21 06:11:45;;;;;;;9.57;7.93;;;;;;;;;;4973703;28;20176;-72
2022/07/21 06:14:10;;;;;;;8.00;7.30;;;;;;;;;;4951984;28;20218;-72
2022/07/21 06:16:36;;;;;;;7.80;7.17;;;;;;;;;;4956426;28;20202;-72
2022/07/21 06:19:01;;;;;;;8.60;7.80;;;;;;;;;;4955147;28;20197;-72
2022/07/21 06:21:27;;;;;;;7.80;7.03;;;;;;;;;;4975259;28;20425;-72
2022/07/21 06:23:52;;;;;;;7.83;6.87;;;;;;;;;;4953511;28;20247;-72
2022/07/21 06:26:18;;;;;;;8.73;7.93;;;;;;;;;;4972397;28;20178;-72
2022/07/21 06:28:43;;;;;;;8.97;8.07;;;;;;;;;;4965003;28;20183;-72
2022/07/21 06:31:08;;;;;;;8.20;7.37;;;;;;;;;;4954886;28;20257;-72
2022/07/21 06:33:33;;;;;;;8.67;7.60;;;;;;;;;;4956994;28;20267;-72
2022/07/21 06:35:58;;;;;;;9.43;7.20;;;;;;;;;;4970960;28;20244;-72
2022/07/21 06:38:24;;;;;;;8.40;7.60;;;;;;;;;;4952690;28;20229;-73
2022/07/21 06:40:49;;;;;;;8.40;7.70;;;;;;;;;;4970783;28;20178;-72
2022/07/21 06:43:16;;;;;;;8.47;7.37;;;;;;;;;;4952945;28;20188;-72
2022/07/21 06:45:42;;;;;;;8.93;8.13;;;;;;;;;;4954597;28;20211;-72
2022/07/21 06:48:08;;;;;;;7.70;7.00;;;;;;;;;;4969878;28;20236;-73
2022/07/21 06:50:34;;;;;;;7.60;7.00;;;;;;;;;;4972649;28;20202;-72
2022/07/21 06:52:59;;;;;;;8.73;7.87;;;;;;;;;;4951714;28;20280;-72
2022/07/21 06:55:25;;;;;;;8.40;7.60;;;;;;;;;;4961712;28;20298;-72
2022/07/21 06:57:50;;;;;;;7.80;7.10;;;;;;;;;;4959416;28;20258;-73
2022/07/21 07:00:19;;;;;;;8.70;7.27;;;;;;;;;;4960887;28;20583;-72
2022/07/21 07:02:44;;;;;;;7.53;6.93;;;;;;;;;;4971460;28;20201;-71
2022/07/21 07:05:09;;;;;;;7.67;5.70;;;;;;;;;;4941449;28;20188;-72
2022/07/21 07:07:35;;;;;;;7.20;6.50;;;;;;;;;;4948801;28;20187;-72
2022/07/21 07:10:02;;;;;;;6.97;5.90;;;;;;;;;;4952240;28;20172;-72
2022/07/21 07:12:27;;;;;;;6.80;6.03;;;;;;;;;;4955266;28;20206;-72
2022/07/21 07:14:52;;;;;;;5.77;5.27;;;;;;;;;;4956345;28;20192;-72
2022/07/21 07:17:18;;;;;;;5.90;5.30;;;;;;;;;;4968067;28;20180;-72
2022/07/21 07:19:44;;;;;;;6.20;5.70;;;;;;;;;;4951770;28;20214;-72
2022/07/21 07:22:09;;;;;;;6.60;5.70;;;;;;;;;;4951870;28;20224;-72
2022/07/21 07:24:34;;;;;;;6.97;6.30;;;;;;;;;;4948961;28;20221;-72
2022/07/21 07:26:59;;;;;;;5.80;5.30;;;;;;;;;;4951467;28;20177;-72
2022/07/21 07:29:25;;;;;;;6.10;5.50;;;;;;;;;;4972628;28;20183;-72
2022/07/21 07:31:50;;;;;;;5.60;5.10;;;;;;;;;;4965729;28;20190;-72
2022/07/21 07:34:15;;;;;;;5.97;5.50;;;;;;;;;;4960937;28;20213;-72
2022/07/21 07:36:40;;;;;;;5.60;4.83;;;;;;;;;;4951281;28;20201;-72
2022/07/21 07:39:06;;;;;;;5.30;4.80;;;;;;;;;;4956009;28;20202;-72
2022/07/21 07:41:31;;;;;;;5.37;4.47;;;;;;;;;;4969780;28;20184;-72
2022/07/21 07:43:58;;;;;;;5.60;5.10;;;;;;;;;;4956985;28;20170;-72
2022/07/21 07:46:23;;;;;;;7.63;4.90;;;;;;;;;;4974793;28;20208;-72
2022/07/21 07:48:48;;;;;;;4.60;4.13;;;;;;;;;;4969534;28;20219;-72
2022/07/21 07:51:14;;;;;;;5.10;4.60;;;;;;;;;;4955842;28;20169;-73
2022/07/21 07:53:40;;;;;;;5.17;4.67;;;;;;;;;;4965533;28;20233;-72
2022/07/21 07:56:06;;;;;;;5.30;4.20;;;;;;;;;;4949007;28;20292;-72
2022/07/21 07:58:31;;;;;;;4.97;4.57;;;;;;;;;;4950262;28;20197;-72
2022/07/21 08:00:57;;;;;;;4.30;3.90;;;;;;;;;;4953777;28;20219;-72
2022/07/21 08:03:22;;;;;;;4.80;4.40;;;;;;;;;;4951892;28;20240;-72
2022/07/21 08:05:48;;;;;;;4.90;4.40;;;;;;;;;;4953155;28;20237;-72
2022/07/21 08:08:13;;;;;;;5.33;4.20;;;;;;;;;;4960985;28;20178;-72
2022/07/21 08:10:39;;;;;;;5.47;3.90;;;;;;;;;;4960552;28;20190;-72
2022/07/21 08:13:05;;;;;;;5.20;4.20;;;;;;;;;;4952094;28;20250;-72
2022/07/21 08:15:30;;;;;;;4.90;3.83;;;;;;;;;;4956844;28;20265;-72
2022/07/21 08:17:56;;;;;;;4.20;3.80;;;;;;;;;;4969203;28;20182;-72
2022/07/21 08:20:21;;;;;;;4.30;3.90;;;;;;;;;;4955371;28;20240;-72
2022/07/21 08:22:46;;;;;;;4.03;3.73;;;;;;;;;;4968517;28;20265;-72
2022/07/21 08:25:11;;;;;;;4.47;4.10;;;;;;;;;;4985511;28;20223;-72
2022/07/21 08:27:38;;;;;;;3.87;3.53;;;;;;;;;;4968623;28;20210;-72
2022/07/21 08:30:04;;;;;;;4.50;4.10;;;;;;;;;;4990290;28;20197;-72
2022/07/21 08:32:29;;;;;;;4.60;4.20;;;;;;;;;;4991884;28;20210;-73
2022/07/21 08:34:54;;;;;;;4.70;3.97;;;;;;;;;;4967413;28;20183;-72
2022/07/21 08:37:20;;;;;;;5.47;3.90;;;;;;;;;;4979568;28;20185;-72
2022/07/21 08:39:47;;;;;;;4.60;4.20;;;;;;;;;;4973012;28;20177;-73
2022/07/21 08:42:13;;;;;;;6.03;4.40;;;;;;;;;;4991125;28;20497;-72
2022/07/21 08:44:38;;;;;;;4.67;4.13;;;;;;;;;;4971168;28;20199;-72
2022/07/21 08:47:04;;;;;;;4.43;4.07;;;;;;;;;;4978555;28;20203;-72
2022/07/21 08:49:30;;;;;;;4.90;4.50;;;;;;;;;;4989802;28;20174;-72
2022/07/21 08:51:55;;;;;;;4.67;4.27;;;;;;;;;;4989429;28;20191;-73
2022/07/21 08:54:21;;;;;;;5.40;4.27;;;;;;;;;;4989139;28;20211;-72
2022/07/21 08:56:46;;;;;;;5.63;5.13;;;;;;;;;;4993986;28;20218;-72
2022/07/21 08:59:11;;;;;;;5.83;5.10;;;;;;;;;;4996040;28;20183;-72
2022/07/21 09:01:37;;;;;;;5.23;4.73;;;;;;;;;;4994885;28;20183;-72
2022/07/21 09:04:22;;;;;;;6.67;4.50;;;;;;;;;;4974444;28;20187;-72
2022/07/21 09:06:52;;;;;;;4.93;4.53;;;;;;;;;;4989540;28;20183;-72
2022/07/21 09:09:19;;;;;;;5.20;4.67;;;;;;;;;;4981262;28;20187;-72
2022/07/21 09:11:45;;;;;;;4.73;4.33;;;;;;;;;;4994935;28;20183;-72
2022/07/21 09:14:11;;;;;;;4.67;4.37;;;;;;;;;;4985825;28;20210;-72
2022/07/21 09:16:43;;;;;;;4.43;4.03;;;;;;;;;;4980695;28;20257;-72
2022/07/21 09:19:15;;;;;;;4.73;4.33;;;;;;;;;;4997198;28;20175;-72
2022/07/21 09:21:43;;;;;;;6.80;4.78;;;;;;;;;;4990880;28;20220;-71
2022/07/21 09:24:20;;;;;;;4.57;4.17;;;;;;;;;;4970291;28;20261;-72
2022/07/21 09:27:06;;;;;;;4.53;4.13;;;;;;;;;;4974645;28;20184;-72
2022/07/21 09:29:42;;;;;;;5.07;4.60;;;;;;;;;;4972949;28;20195;-72
2022/07/21 09:32:12;;;;;;;5.73;4.70;;;;;;;;;;4994631;28;20187;-73
2022/07/21 09:34:37;;;;;;;4.30;4.00;;;;;;;;;;4989366;28;20191;-72
2022/07/21 09:37:05;;;;;;;6.40;4.13;;;;;;;;;;4974056;28;20182;-72
2022/07/21 09:39:40;;;;;;;4.40;4.00;;;;;;;;;;4975676;28;20253;-72
2022/07/21 09:42:16;;;;;;;6.32;4.22;;;;;;;;;;5001798;28;20183;-72
2022/07/21 09:44:43;;;;;;;4.57;4.18;;;;;;;;;;4978115;28;20176;-72
2022/07/21 09:47:10;;;;;;;4.32;3.92;;;;;;;;;;4981528;28;20172;-72
2022/07/21 09:49:36;;;;;;;4.90;4.50;;;;;;;;;;4975082;28;20199;-72
2022/07/21 09:52:02;;;;;;;6.13;4.45;;;;;;;;;;4991868;28;20180;-72
2022/07/21 09:54:27;;;;;;;5.05;4.38;;;;;;;;;;4979554;28;20188;-72
2022/07/21 09:56:54;;;;;;;5.78;4.72;;;;;;;;;;4970878;28;20203;-73
2022/07/21 09:59:19;;;;;;;4.38;3.97;;;;;;;;;;4974014;28;20222;-72
2022/07/21 10:01:46;;;;;;;4.88;4.47;;;;;;;;;;4969453;28;20180;-72
2022/07/21 10:04:12;;;;;;;4.55;4.15;;;;;;;;;;4969022;28;20191;-73
2022/07/21 10:06:38;;;;;;;6.25;4.82;;;;;;;;;;5000913;28;20191;-72
2022/07/21 10:09:05;;;;;;;6.43;4.57;;;;;;;;;;4972797;28;20184;-72
2022/07/21 10:11:30;;;;;;;4.80;4.40;;;;;;;;;;4974152;28;20184;-72
2022/07/21 10:13:55;;;;;;;4.72;4.32;;;;;;;;;;4983793;28;20258;-71
2022/07/21 10:16:20;;;;;;;5.68;4.88;;;;;;;;;;4974489;28;20251;-72
2022/07/21 10:19:00;;;;;;;5.60;4.82;;;;;;;;;;4968282;28;20231;-72
2022/07/21 10:21:38;;;;;;;4.40;4.00;;;;;;;;;;4970564;28;20235;-73
2022/07/21 10:24:04;;;;;;;4.35;3.88;;;;;;;;;;4993340;28;20271;-72
2022/07/21 10:26:30;;;;;;;4.30;4.00;;;;;;;;;;4969951;28;20211;-72
2022/07/21 10:28:55;;;;;;;5.30;4.80;;;;;;;;;;4978664;28;20176;-72
2022/07/21 10:31:25;;;;;;;4.72;4.32;;;;;;;;;;4993079;28;20304;-72
2022/07/21 10:33:52;;;;;;;4.32;3.90;;;;;;;;;;4970800;28;20215;-72
2022/07/21 10:36:26;;;;;;;5.57;4.95;;;;;;;;;;4985597;28;20188;-73
2022/07/21 10:39:10;;;;;;;5.07;4.57;;;;;;;;;;4972829;28;20208;-72
2022/07/21 10:41:40;;;;;;;5.13;4.70;;;;;;;;;;4978876;28;20202;-72
2022/07/21 10:44:24;;;;;;;5.18;4.68;;;;;;;;;;4976898;28;20185;-72
2022/07/21 10:47:02;;;;;;;5.38;4.60;;;;;;;;;;4974052;28;20187;-72
2022/07/21 10:49:42;;;;;;;4.97;4.45;;;;;;;;;;4973841;28;20180;-72
2022/07/21 10:52:27;;;;;;;5.47;4.85;;;;;;;;;;4975839;28;20203;-72
2022/07/21 10:55:16;;;;;;;5.45;4.70;;;;;;;;;;4964043;28;20272;-73
2022/07/21 10:57:42;;;;;;;6.00;5.18;;;;;;;;;;4992201;28;20214;-73
2022/07/21 11:00:21;;;;;;;5.88;5.38;;;;;;;;;;4991711;28;20188;-72
2022/07/21 11:02:47;;;;;;;5.70;5.30;;;;;;;;;;4977009;28;20184;-72
2022/07/21 11:05:15;;;;;;;6.20;5.30;;;;;;;;;;4970787;28;20176;-72
2022/07/21 11:08:10;;;;;;;6.03;5.35;;;;;;;;;;4985973;28;20185;-72
2022/07/21 11:10:36;;;;;;;7.03;5.80;;;;;;;;;;4959617;28;20270;-73
2022/07/21 11:13:01;;;;;;;5.95;5.45;;;;;;;;;;4970726;28;20308;-73
2022/07/21 11:15:45;;;;;;;5.78;5.28;;;;;;;;;;4993806;28;20192;-73
2022/07/21 11:18:10;;;;;;;5.78;5.22;;;;;;;;;;4989957;28;20263;-72
2022/07/21 11:20:36;;;;;;;5.68;5.13;;;;;;;;;;4970483;28;20319;-72
2022/07/21 11:23:03;;;;;;;5.88;5.38;;;;;;;;;;4959379;28;20225;-73
2022/07/21 11:25:33;;;;;;;5.43;5.03;;;;;;;;;;5151180;23;20285;-70
2022/07/21 11:27:58;;;;;;;6.68;6.10;;;;;;;;;;4981418;28;20184;-70
2022/07/21 11:30:23;;;;;;;6.03;4.97;;;;;;;;;;5005717;28;20171;-70
2022/07/21 11:32:49;;;;;;;6.25;5.68;;;;;;;;;;4993339;28;20274;-70
2022/07/21 11:35:14;;;;;;;6.28;5.68;;;;;;;;;;4986764;28;20275;-70
2022/07/21 11:37:40;;;;;;;8.00;6.53;;;;;;;;;;4993363;28;20243;-71
2022/07/21 11:40:14;;;;;;;6.13;5.53;;;;;;;;;;4993658;28;20179;-71
2022/07/21 11:42:39;;;;;;;5.15;4.85;;;;;;;;;;4992226;28;20415;-70
2022/07/21 11:45:05;;;;;;;6.07;5.47;;;;;;;;;;4990135;28;20215;-70
2022/07/21 11:47:30;;;;;;;6.45;5.60;;;;;;;;;;4987620;28;20214;-70
2022/07/21 11:49:57;;;;;;;5.68;5.03;;;;;;;;;;5007635;28;20211;-71
2022/07/21 11:52:29;;;;;;;6.75;6.25;;;;;;;;;;4991500;28;20278;-71
2022/07/21 11:54:56;;;;;;;6.75;5.57;;;;;;;;;;4992532;28;20186;-70
2022/07/21 11:57:21;;;;;;;7.03;6.32;;;;;;;;;;4984188;28;20198;-70
2022/07/21 11:59:47;;;;;;;5.70;5.22;;;;;;;;;;4991031;28;20243;-70
2022/07/21 12:02:14;;;;;;;6.45;5.85;;;;;;;;;;5007181;28;20185;-70
2022/07/21 12:04:46;;;;;;;7.25;5.53;;;;;;;;;;4992846;28;20467;-70
2022/07/21 12:07:11;;;;;;;6.30;5.38;;;;;;;;;;4994385;28;20214;-71
2022/07/21 12:09:37;;;;;;;6.38;5.50;;;;;;;;;;4997894;28;20214;-70
2022/07/21 12:12:02;;;;;;;5.53;5.05;;;;;;;;;;4996483;28;20452;-70
2022/07/21 12:14:40;;;;;;;5.70;5.10;;;;;;;;;;5011310;28;20203;-72
2022/07/21 12:17:05;;;;;;;5.60;5.07;;;;;;;;;;4993277;28;20223;-70
2022/07/21 12:19:31;;;;;;;5.95;5.35;;;;;;;;;;5014174;28;20175;-70
2022/07/21 12:21:56;;;;;;;5.63;5.22;;;;;;;;;;5009095;28;20182;-70
2022/07/21 12:24:21;;;;;;;6.07;5.57;;;;;;;;;;5003557;28;20226;-70
2022/07/21 12:26:46;;;;;;;6.20;5.70;;;;;;;;;;4971378;28;20181;-70
2022/07/21 12:29:25;;;;;;;6.05;5.45;;;;;;;;;;4990675;28;20576;-70
2022/07/21 12:31:50;;;;;;;5.68;5.15;;;;;;;;;;4992549;28;20267;-70
2022/07/21 12:34:18;;;;;;;7.93;6.10;;;;;;;;;;4971619;28;20354;-70
2022/07/21 12:36:44;;;;;;;5.50;5.10;;;;;;;;;;4972182;28;20270;-70
2022/07/21 12:42:07;;;;;;;6.65;6.03;;;;;;;;;;4992075;28;20378;-71
2022/07/21 12:44:33;;;;;;;31.27;6.97;;;;;;;;;;4990292;28;20195;-70
2022/07/21 12:47:12;;;;;;;9.60;6.43;;;;;;;;;;4973206;28;20177;-70
2022/07/21 12:50:00;;;;;;;6.60;6.00;;;;;;;;;;4975512;28;20190;-70
2022/07/21 12:52:26;;;;;;;4.45;4.13;;;;;;;;;;4976820;28;20212;-70
2022/07/21 12:54:52;;;;;;;5.53;4.88;;;;;;;;;;4988363;28;20200;-69
2022/07/21 12:57:17;;;;;;;5.38;4.80;;;;;;;;;;4990842;28;20232;-70
2022/07/21 12:59:42;;;;;;;6.80;5.25;;;;;;;;;;4976203;28;20243;-70
2022/07/21 13:02:08;;;;;;;6.30;4.57;;;;;;;;;;4972221;28;20176;-69
2022/07/21 13:04:33;;;;;;;5.35;4.85;;;;;;;;;;4974012;28;20176;-70
2022/07/21 13:06:58;;;;;;;5.93;5.38;;;;;;;;;;4973690;28;20191;-71
2022/07/21 13:09:23;;;;;;;5.20;4.80;;;;;;;;;;4973250;28;20183;-71
2022/07/21 13:11:49;;;;;;;5.57;5.10;;;;;;;;;;4982387;28;20303;-70
2022/07/21 13:14:14;;;;;;;4.85;4.45;;;;;;;;;;4991661;28;20274;-70
2022/07/21 13:16:39;;;;;;;5.03;4.63;;;;;;;;;;4987999;28;20267;-70
2022/07/21 13:19:05;;;;;;;5.67;5.17;;;;;;;;;;4985761;28;20213;-70
2022/07/21 13:21:31;;;;;;;6.90;5.80;;;;;;;;;;4988008;28;20804;-69
2022/07/21 13:23:56;;;;;;;5.30;4.80;;;;;;;;;;4991679;28;20184;-70
2022/07/21 13:26:21;;;;;;;6.20;5.20;;;;;;;;;;4996752;28;20238;-70
2022/07/21 13:28:47;;;;;;;5.38;4.97;;;;;;;;;;4997164;28;20187;-70
2022/07/21 13:31:12;;;;;;;5.70;5.20;;;;;;;;;;4989078;28;20188;-70
2022/07/21 13:33:37;;;;;;;6.03;5.53;;;;;;;;;;5012306;28;20226;-70
2022/07/21 13:36:03;;;;;;;5.72;5.30;;;;;;;;;;4997021;28;20176;-70
2022/07/21 13:38:29;;;;;;;5.47;5.00;;;;;;;;;;4999415;28;20188;-76
2022/07/21 13:40:56;;;;;;;7.60;5.28;;;;;;;;;;5009030;28;20183;-75
2022/07/21 13:43:21;;;;;;;6.03;5.15;;;;;;;;;;5002083;28;20175;-74
2022/07/21 13:45:46;;;;;;;5.17;4.77;;;;;;;;;;4988581;28;20176;-75
2022/07/21 13:48:12;;;;;;;6.05;5.00;;;;;;;;;;5008106;28;20430;-75
2022/07/21 13:50:37;;;;;;;4.90;4.50;;;;;;;;;;5011574;28;20234;-75
2022/07/21 13:53:02;;;;;;;4.78;4.38;;;;;;;;;;5000826;28;20238;-75
2022/07/21 13:55:28;;;;;;;4.88;4.57;;;;;;;;;;4990800;28;20198;-76
2022/07/21 13:57:53;;;;;;;5.38;4.80;;;;;;;;;;4994497;28;20257;-75
2022/07/21 14:00:18;;;;;;;5.25;4.82;;;;;;;;;;4989714;28;20176;-76
2022/07/21 14:02:43;;;;;;;4.30;4.00;;;;;;;;;;4993282;28;20195;-75
2022/07/21 14:05:09;;;;;;;4.78;4.38;;;;;;;;;;4990827;28;20176;-75
2022/07/21 14:07:36;;;;;;;5.65;4.53;;;;;;;;;;4989200;28;20187;-75
2022/07/21 14:10:01;;;;;;;5.28;4.78;;;;;;;;;;4993790;28;20180;-75
2022/07/21 14:12:26;;;;;;;5.82;4.50;;;;;;;;;;5007886;28;20190;-75
2022/07/21 14:14:51;;;;;;;5.30;4.80;;;;;;;;;;5009234;28;20415;-75
2022/07/21 14:17:17;;;;;;;4.90;4.50;;;;;;;;;;4992529;28;20180;-75
2022/07/21 14:19:43;;;;;;;7.60;4.70;;;;;;;;;;4989854;28;20184;-75
2022/07/21 14:22:09;;;;;;;4.80;4.40;;;;;;;;;;5003853;28;20558;-75
2022/07/21 14:27:18;;;;;;;5.07;4.43;;;;;;;;;;4984481;28;20224;-75
2022/07/21 14:29:43;;;;;;;4.70;3.87;;;;;;;;;;4988824;28;20184;-75
2022/07/21 14:32:08;;;;;;;5.28;4.78;;;;;;;;;;4975182;28;20428;-75
2022/07/21 14:34:33;;;;;;;4.78;4.25;;;;;;;;;;4975495;28;20211;-75
2022/07/21 14:36:58;;;;;;;4.43;4.13;;;;;;;;;;4964952;28;20251;-75
2022/07/21 14:39:24;;;;;;;5.63;4.43;;;;;;;;;;4985151;28;20410;-75
2022/07/21 14:41:49;;;;;;;4.35;3.95;;;;;;;;;;4970195;28;20180;-75
2022/07/21 14:44:15;;;;;;;4.50;4.10;;;;;;;;;;4988294;28;20250;-75